sensor_id;sensor_type;location;lat;lon;timestamp;pressure;altitude;pressure_sealevel;temperature;humidity
42067;BME280;27734;47.028;28.820;2022-11-02T00:02:27;100659.92;;;10.41;55.46
42067;BME280;27734;47.028;28.820;2022-11-02T00:04:58;100658.98;;;10.39;55.34
42067;BME280;27734;47.028;28.820;2022-11-02T00:07:29;100657.94;;;10.36;55.14
42067;BME280;27734;47.028;28.820;2022-11-02T00:10:00;100653.48;;;10.33;55.18
42067;BME280;27734;47.028;28.820;2022-11-02T00:12:32;100651.66;;;10.32;55.89
42067;BME280;27734;47.028;28.820;2022-11-02T00:15:03;100657.72;;;10.31;56.03
42067;BME280;27734;47.028;28.820;2022-11-02T00:17:34;100651.53;;;10.29;56.06
42067;BME280;27734;47.028;28.820;2022-11-02T00:20:07;100647.23;;;10.31;55.78
42067;BME280;27734;47.028;28.820;2022-11-02T00:22:39;100646.50;;;10.34;55.87
42067;BME280;27734;47.028;28.820;2022-11-02T00:25:13;100649.12;;;10.34;55.91
42067;BME280;27734;47.028;28.820;2022-11-02T00:27:44;100648.97;;;10.31;56.29
42067;BME280;27734;47.028;28.820;2022-11-02T00:30:17;100647.17;;;10.30;56.51
42067;BME280;27734;47.028;28.820;2022-11-02T00:32:48;100645.34;;;10.27;56.72
42067;BME280;27734;47.028;28.820;2022-11-02T00:35:21;100637.48;;;10.27;56.73
42067;BME280;27734;47.028;28.820;2022-11-02T00:37:52;100635.62;;;10.24;56.89
42067;BME280;27734;47.028;28.820;2022-11-02T00:40:24;100638.17;;;10.23;56.59
42067;BME280;27734;47.028;28.820;2022-11-02T00:42:55;100638.94;;;10.20;56.68
42067;BME280;27734;47.028;28.820;2022-11-02T00:45:26;100642.42;;;10.19;57.24
42067;BME280;27734;47.028;28.820;2022-11-02T00:47:58;100632.75;;;10.18;56.75
42067;BME280;27734;47.028;28.820;2022-11-02T00:50:34;100628.39;;;10.19;56.96
42067;BME280;27734;47.028;28.820;2022-11-02T00:53:05;100630.07;;;10.17;57.50
42067;BME280;27734;47.028;28.820;2022-11-02T00:55:36;100628.27;;;10.16;57.02
42067;BME280;27734;47.028;28.820;2022-11-02T00:58:07;100624.70;;;10.14;57.21
42067;BME280;27734;47.028;28.820;2022-11-02T01:00:39;100625.52;;;10.13;57.42
42067;BME280;27734;47.028;28.820;2022-11-02T01:03:10;100624.64;;;10.12;57.58
42067;BME280;27734;47.028;28.820;2022-11-02T01:05:41;100623.76;;;10.12;57.52
42067;BME280;27734;47.028;28.820;2022-11-02T01:08:12;100620.22;;;10.11;57.56
42067;BME280;27734;47.028;28.820;2022-11-02T01:10:43;100621.96;;;10.11;58.03
42067;BME280;27734;47.028;28.820;2022-11-02T01:13:14;100619.34;;;10.11;58.35
42067;BME280;27734;47.028;28.820;2022-11-02T01:15:45;100622.78;;;10.10;58.41
42067;BME280;27734;47.028;28.820;2022-11-02T01:18:16;100625.41;;;10.10;57.94
42067;BME280;27734;47.028;28.820;2022-11-02T01:20:50;100621.02;;;10.08;58.56
42067;BME280;27734;47.028;28.820;2022-11-02T01:23:25;100621.90;;;10.09;58.18
42067;BME280;27734;47.028;28.820;2022-11-02T01:25:56;100617.48;;;10.08;58.84
42067;BME280;27734;47.028;28.820;2022-11-02T01:28:27;100612.23;;;10.08;59.01
42067;BME280;27734;47.028;28.820;2022-11-02T01:30:58;100613.97;;;10.07;59.03
42067;BME280;27734;47.028;28.820;2022-11-02T01:33:29;100611.35;;;10.07;59.11
42067;BME280;27734;47.028;28.820;2022-11-02T01:36:03;100612.11;;;10.05;58.63
42067;BME280;27734;47.028;28.820;2022-11-02T01:38:34;100615.59;;;10.04;58.78
42067;BME280;27734;47.028;28.820;2022-11-02T01:41:06;100617.36;;;10.05;59.41
42067;BME280;27734;47.028;28.820;2022-11-02T01:43:39;100614.67;;;10.03;58.97
42067;BME280;27734;47.028;28.820;2022-11-02T01:46:17;100608.55;;;10.03;59.43
42067;BME280;27734;47.028;28.820;2022-11-02T01:48:54;100614.67;;;10.03;59.10
42067;BME280;27734;47.028;28.820;2022-11-02T01:51:32;100602.42;;;10.02;59.39
42067;BME280;27734;47.028;28.820;2022-11-02T01:54:09;100603.19;;;10.00;60.00
42067;BME280;27734;47.028;28.820;2022-11-02T01:56:44;100601.42;;;9.99;60.02
42067;BME280;27734;47.028;28.820;2022-11-02T01:59:18;100603.13;;;9.98;60.13
42067;BME280;27734;47.028;28.820;2022-11-02T02:01:52;100608.30;;;9.97;59.91
42067;BME280;27734;47.028;28.820;2022-11-02T02:04:23;100610.86;;;9.95;59.65
42067;BME280;27734;47.028;28.820;2022-11-02T02:06:57;100613.48;;;9.95;60.17
42067;BME280;27734;47.028;28.820;2022-11-02T02:09:29;100604.67;;;9.93;60.24
42067;BME280;27734;47.028;28.820;2022-11-02T02:12:00;100608.97;;;9.91;60.54
42067;BME280;27734;47.028;28.820;2022-11-02T02:14:31;100610.55;;;9.87;60.55
42067;BME280;27734;47.028;28.820;2022-11-02T02:17:17;100614.79;;;9.84;60.10
42067;BME280;27734;47.028;28.820;2022-11-02T02:19:55;100611.16;;;9.80;60.25
42067;BME280;27734;47.028;28.820;2022-11-02T02:23:11;100605.73;;;9.76;61.01
42067;BME280;27734;47.028;28.820;2022-11-02T02:25:59;100612.55;;;9.72;60.88
42067;BME280;27734;47.028;28.820;2022-11-02T02:28:40;100604.50;;;9.67;60.99
42067;BME280;27734;47.028;28.820;2022-11-02T02:31:18;100614.86;;;9.64;60.68
42067;BME280;27734;47.028;28.820;2022-11-02T02:33:57;100619.08;;;9.61;60.99
42067;BME280;27734;47.028;28.820;2022-11-02T02:36:33;100621.64;;;9.59;60.77
42067;BME280;27734;47.028;28.820;2022-11-02T02:39:09;100616.40;;;9.59;61.37
42067;BME280;27734;47.028;28.820;2022-11-02T02:41:46;100619.84;;;9.58;61.15
42067;BME280;27734;47.028;28.820;2022-11-02T02:44:23;100623.31;;;9.57;61.25
42067;BME280;27734;47.028;28.820;2022-11-02T02:47:01;100620.69;;;9.57;60.93
42067;BME280;27734;47.028;28.820;2022-11-02T02:49:37;100607.53;;;9.56;61.32
42067;BME280;27734;47.028;28.820;2022-11-02T02:52:11;100616.34;;;9.58;61.27
42067;BME280;27734;47.028;28.820;2022-11-02T02:54:45;100614.60;;;9.58;61.29
42067;BME280;27734;47.028;28.820;2022-11-02T02:57:19;100614.66;;;9.60;62.08
42067;BME280;27734;47.028;28.820;2022-11-02T02:59:51;100616.46;;;9.61;61.55
42067;BME280;27734;47.028;28.820;2022-11-02T03:02:27;100623.44;;;9.60;62.03
42067;BME280;27734;47.028;28.820;2022-11-02T03:05:00;100626.75;;;9.56;62.28
42067;BME280;27734;47.028;28.820;2022-11-02T03:07:33;100625.67;;;9.51;62.32
42067;BME280;27734;47.028;28.820;2022-11-02T03:10:15;100626.17;;;9.42;62.51
42067;BME280;27734;47.028;28.820;2022-11-02T03:12:52;100626.43;;;9.27;62.56
42067;BME280;27734;47.028;28.820;2022-11-02T03:15:33;100634.30;;;9.08;62.55
42067;BME280;27734;47.028;28.820;2022-11-02T03:18:10;100626.55;;;8.90;62.76
42067;BME280;27734;47.028;28.820;2022-11-02T03:20:51;100631.30;;;8.79;62.77
42067;BME280;27734;47.028;28.820;2022-11-02T03:23:27;100628.13;;;8.67;62.58
42067;BME280;27734;47.028;28.820;2022-11-02T03:26:03;100632.09;;;8.58;63.01
42067;BME280;27734;47.028;28.820;2022-11-02T03:28:52;100625.62;;;8.50;63.10
42067;BME280;27734;47.028;28.820;2022-11-02T03:31:34;100629.58;;;8.42;63.39
42067;BME280;27734;47.028;28.820;2022-11-02T03:34:18;100626.54;;;8.33;63.10
42067;BME280;27734;47.028;28.820;2022-11-02T03:36:58;100621.09;;;8.28;62.89
42067;BME280;27734;47.028;28.820;2022-11-02T03:39:34;100625.36;;;8.26;63.15
42067;BME280;27734;47.028;28.820;2022-11-02T03:42:10;100626.11;;;8.23;63.59
42067;BME280;27734;47.028;28.820;2022-11-02T03:44:45;100625.08;;;8.20;63.42
42067;BME280;27734;47.028;28.820;2022-11-02T03:47:20;100619.78;;;8.18;63.31
42067;BME280;27734;47.028;28.820;2022-11-02T03:49:54;100624.86;;;8.15;63.67
42067;BME280;27734;47.028;28.820;2022-11-02T03:52:29;100624.71;;;8.12;63.61
42067;BME280;27734;47.028;28.820;2022-11-02T03:55:06;100617.68;;;8.11;64.10
42067;BME280;27734;47.028;28.820;2022-11-02T03:57:41;100618.49;;;8.10;63.67
42067;BME280;27734;47.028;28.820;2022-11-02T04:00:18;100621.66;;;8.03;64.21
42067;BME280;27734;47.028;28.820;2022-11-02T04:02:57;100609.92;;;7.95;64.03
42067;BME280;27734;47.028;28.820;2022-11-02T04:05:31;100613.30;;;7.92;64.43
42067;BME280;27734;47.028;28.820;2022-11-02T04:08:08;100608.73;;;7.88;64.71
42067;BME280;27734;47.028;28.820;2022-11-02T04:10:56;100610.91;;;7.79;64.87
42067;BME280;27734;47.028;28.820;2022-11-02T04:13:46;100613.14;;;7.71;64.93
42067;BME280;27734;47.028;28.820;2022-11-02T04:16:38;100617.25;;;7.66;65.05
42067;BME280;27734;47.028;28.820;2022-11-02T04:19:13;100609.11;;;7.60;65.89
42067;BME280;27734;47.028;28.820;2022-11-02T04:21:59;100617.60;;;7.55;65.77
42067;BME280;27734;47.028;28.820;2022-11-02T04:24:50;100625.20;;;7.51;65.99
42067;BME280;27734;47.028;28.820;2022-11-02T04:27:39;100630.20;;;7.46;66.32
42067;BME280;27734;47.028;28.820;2022-11-02T04:30:12;100620.44;;;7.42;66.78
42067;BME280;27734;47.028;28.820;2022-11-02T04:32:44;100623.78;;;7.40;66.17
42067;BME280;27734;47.028;28.820;2022-11-02T04:35:36;100619.45;;;7.40;67.32
42067;BME280;27734;47.028;28.820;2022-11-02T04:38:07;100630.05;;;7.43;67.34
42067;BME280;27734;47.028;28.820;2022-11-02T04:40:59;100632.81;;;7.46;67.93
42067;BME280;27734;47.028;28.820;2022-11-02T04:43:45;100638.03;;;7.46;67.49
42067;BME280;27734;47.028;28.820;2022-11-02T04:46:17;100633.73;;;7.47;68.18
42067;BME280;27734;47.028;28.820;2022-11-02T04:48:48;100640.72;;;7.48;68.29
42067;BME280;27734;47.028;28.820;2022-11-02T04:51:22;100639.84;;;7.47;68.54
42067;BME280;27734;47.028;28.820;2022-11-02T04:53:53;100640.48;;;7.43;70.19
42067;BME280;27734;47.028;28.820;2022-11-02T04:56:26;100633.42;;;7.41;68.69
42067;BME280;27734;47.028;28.820;2022-11-02T04:58:59;100639.53;;;7.41;68.60
42067;BME280;27734;47.028;28.820;2022-11-02T05:01:33;100639.68;;;7.44;68.10
42067;BME280;27734;47.028;28.820;2022-11-02T05:04:04;100638.03;;;7.46;68.07
42067;BME280;27734;47.028;28.820;2022-11-02T05:06:36;100642.45;;;7.47;68.47
42067;BME280;27734;47.028;28.820;2022-11-02T05:09:09;100644.98;;;7.46;68.81
42067;BME280;27734;47.028;28.820;2022-11-02T05:11:41;100644.09;;;7.45;69.09
42067;BME280;27734;47.028;28.820;2022-11-02T05:14:12;100648.32;;;7.43;69.60
42067;BME280;27734;47.028;28.820;2022-11-02T05:16:44;100657.80;;;7.41;69.66
42067;BME280;27734;47.028;28.820;2022-11-02T05:19:15;100662.06;;;7.39;70.34
42067;BME280;27734;47.028;28.820;2022-11-02T05:21:46;100666.16;;;7.34;70.61
42067;BME280;27734;47.028;28.820;2022-11-02T05:24:17;100663.47;;;7.32;70.06
42067;BME280;27734;47.028;28.820;2022-11-02T05:26:49;100672.34;;;7.36;70.38
42067;BME280;27734;47.028;28.820;2022-11-02T05:29:21;100676.08;;;7.41;71.89
42067;BME280;27734;47.028;28.820;2022-11-02T05:31:52;100670.36;;;7.48;70.69
42067;BME280;27734;47.028;28.820;2022-11-02T05:34:23;100682.89;;;7.55;71.50
42067;BME280;27734;47.028;28.820;2022-11-02T05:36:56;100678.05;;;7.63;72.25
42067;BME280;27734;47.028;28.820;2022-11-02T05:39:30;100681.81;;;7.68;71.30
42067;BME280;27734;47.028;28.820;2022-11-02T05:42:01;100683.09;;;7.77;72.86
42067;BME280;27734;47.028;28.820;2022-11-02T05:44:46;100672.56;;;7.75;71.98
42067;BME280;27734;47.028;28.820;2022-11-02T05:47:18;100682.89;;;7.90;72.29
42067;BME280;27734;47.028;28.820;2022-11-02T05:49:49;100679.66;;;7.96;73.26
42067;BME280;27734;47.028;28.820;2022-11-02T05:52:20;100687.80;;;8.02;74.38
42067;BME280;27734;47.028;28.820;2022-11-02T05:54:51;100685.48;;;8.08;74.80
42067;BME280;27734;47.028;28.820;2022-11-02T05:57:22;100687.59;;;8.15;75.49
42067;BME280;27734;47.028;28.820;2022-11-02T05:59:53;100695.80;;;8.23;74.50
42067;BME280;27734;47.028;28.820;2022-11-02T06:02:24;100692.56;;;8.28;74.25
42067;BME280;27734;47.028;28.820;2022-11-02T06:04:56;100699.89;;;8.36;74.89
42067;BME280;27734;47.028;28.820;2022-11-02T06:07:27;100698.56;;;8.44;75.45
42067;BME280;27734;47.028;28.820;2022-11-02T06:09:58;100703.34;;;8.53;75.30
42067;BME280;27734;47.028;28.820;2022-11-02T06:12:34;100710.85;;;8.64;74.62
42067;BME280;27734;47.028;28.820;2022-11-02T06:15:07;100713.16;;;8.76;74.38
42067;BME280;27734;47.028;28.820;2022-11-02T06:17:39;100694.59;;;8.90;73.80
42067;BME280;27734;47.028;28.820;2022-11-02T06:20:12;100699.53;;;9.03;73.49
42067;BME280;27734;47.028;28.820;2022-11-02T06:22:44;100707.94;;;9.15;73.52
42067;BME280;27734;47.028;28.820;2022-11-02T06:25:16;100706.82;;;9.30;73.67
42067;BME280;27734;47.028;28.820;2022-11-02T06:27:52;100694.33;;;9.44;73.96
42067;BME280;27734;47.028;28.820;2022-11-02T06:30:25;100700.98;;;9.57;73.48
42067;BME280;27734;47.028;28.820;2022-11-02T06:32:56;100691.95;;;9.69;74.26
42067;BME280;27734;47.028;28.820;2022-11-02T06:35:28;100695.28;;;9.86;74.76
42067;BME280;27734;47.028;28.820;2022-11-02T06:38:07;100695.00;;;10.01;74.43
42067;BME280;27734;47.028;28.820;2022-11-02T06:40:40;100698.25;;;10.17;74.76
42067;BME280;27734;47.028;28.820;2022-11-02T06:43:12;100694.32;;;10.28;75.15
42067;BME280;27734;47.028;28.820;2022-11-02T06:45:43;100693.90;;;10.38;75.02
42067;BME280;27734;47.028;28.820;2022-11-02T06:48:15;100686.33;;;10.46;75.02
42067;BME280;27734;47.028;28.820;2022-11-02T06:50:47;100696.33;;;10.56;74.87
42067;BME280;27734;47.028;28.820;2022-11-02T06:53:18;100702.79;;;10.65;74.67
42067;BME280;27734;47.028;28.820;2022-11-02T06:55:53;100696.16;;;10.74;74.60
42067;BME280;27734;47.028;28.820;2022-11-02T06:58:26;100690.38;;;10.83;74.90
42067;BME280;27734;47.028;28.820;2022-11-02T07:01:02;100686.34;;;10.93;75.47
42067;BME280;27734;47.028;28.820;2022-11-02T07:03:35;100689.38;;;11.04;75.12
42067;BME280;27734;47.028;28.820;2022-11-02T07:06:09;100681.95;;;11.16;75.37
42067;BME280;27734;47.028;28.820;2022-11-02T07:08:42;100687.59;;;11.27;75.07
42067;BME280;27734;47.028;28.820;2022-11-02T07:11:16;100684.42;;;11.37;75.15
42067;BME280;27734;47.028;28.820;2022-11-02T07:13:50;100690.06;;;11.48;75.06
42067;BME280;27734;47.028;28.820;2022-11-02T07:16:22;100692.34;;;11.63;74.96
42067;BME280;27734;47.028;28.820;2022-11-02T07:18:56;100673.50;;;11.76;74.90
42067;BME280;27734;47.028;28.820;2022-11-02T07:21:28;100683.59;;;11.90;74.77
42067;BME280;27734;47.028;28.820;2022-11-02T07:24:03;100669.09;;;12.01;74.86
42067;BME280;27734;47.028;28.820;2022-11-02T07:26:36;100677.48;;;12.16;74.87
42067;BME280;27734;47.028;28.820;2022-11-02T07:29:07;100673.39;;;12.26;75.00
42067;BME280;27734;47.028;28.820;2022-11-02T07:31:39;100668.47;;;12.37;74.62
42067;BME280;27734;47.028;28.820;2022-11-02T07:34:10;100670.55;;;12.47;74.79
42067;BME280;27734;47.028;28.820;2022-11-02T07:36:43;100660.35;;;12.58;74.54
42067;BME280;27734;47.028;28.820;2022-11-02T07:39:18;100657.17;;;12.70;74.68
42067;BME280;27734;47.028;28.820;2022-11-02T07:41:53;100660.20;;;12.84;74.90
42067;BME280;27734;47.028;28.820;2022-11-02T07:44:26;100651.78;;;12.95;74.25
42067;BME280;27734;47.028;28.820;2022-11-02T07:47:01;100653.87;;;13.07;74.54
42067;BME280;27734;47.028;28.820;2022-11-02T07:49:44;100657.70;;;13.19;74.56
42067;BME280;27734;47.028;28.820;2022-11-02T07:52:16;100654.48;;;13.30;73.92
42067;BME280;27734;47.028;28.820;2022-11-02T07:54:48;100655.72;;;13.42;74.08
42067;BME280;27734;47.028;28.820;2022-11-02T07:57:31;100649.82;;;13.52;74.16
42067;BME280;27734;47.028;28.820;2022-11-02T08:00:05;100651.02;;;13.63;74.31
42067;BME280;27734;47.028;28.820;2022-11-02T08:02:42;100650.33;;;13.72;73.69
42067;BME280;27734;47.028;28.820;2022-11-02T08:05:16;100652.36;;;13.82;73.99
42067;BME280;27734;47.028;28.820;2022-11-02T08:07:48;100653.47;;;13.92;73.07
42067;BME280;27734;47.028;28.820;2022-11-02T08:10:30;100650.22;;;14.02;73.83
42067;BME280;27734;47.028;28.820;2022-11-02T08:13:05;100657.40;;;14.10;72.69
42067;BME280;27734;47.028;28.820;2022-11-02T08:15:38;100661.14;;;14.18;72.54
42067;BME280;27734;47.028;28.820;2022-11-02T08:18:18;100646.33;;;14.25;72.90
42067;BME280;27734;47.028;28.820;2022-11-02T08:20:55;100648.27;;;14.33;72.41
42067;BME280;27734;47.028;28.820;2022-11-02T08:23:31;100637.84;;;14.39;71.87
42067;BME280;27734;47.028;28.820;2022-11-02T08:26:08;100649.45;;;14.46;72.01
42067;BME280;27734;47.028;28.820;2022-11-02T08:28:49;100631.98;;;14.53;71.60
42067;BME280;27734;47.028;28.820;2022-11-02T08:31:39;100639.30;;;14.63;71.87
42067;BME280;27734;47.028;28.820;2022-11-02T08:34:17;100631.53;;;14.71;71.62
42067;BME280;27734;47.028;28.820;2022-11-02T08:36:53;100632.64;;;14.82;71.10
42067;BME280;27734;47.028;28.820;2022-11-02T08:39:25;100630.19;;;14.91;71.30
42067;BME280;27734;47.028;28.820;2022-11-02T08:42:08;100636.53;;;15.01;70.58
42067;BME280;27734;47.028;28.820;2022-11-02T08:44:45;100634.86;;;15.06;68.15
42067;BME280;27734;47.028;28.820;2022-11-02T08:47:19;100635.87;;;15.12;69.09
42067;BME280;27734;47.028;28.820;2022-11-02T08:49:55;100632.42;;;15.17;69.24
42067;BME280;27734;47.028;28.820;2022-11-02T08:52:31;100623.80;;;15.26;69.97
42067;BME280;27734;47.028;28.820;2022-11-02T08:55:07;100630.98;;;15.35;68.98
42067;BME280;27734;47.028;28.820;2022-11-02T08:57:48;100628.48;;;15.42;69.13
42067;BME280;27734;47.028;28.820;2022-11-02T09:00:23;100625.04;;;15.46;68.16
42067;BME280;27734;47.028;28.820;2022-11-02T09:03:03;100618.90;;;15.48;68.05
42067;BME280;27734;47.028;28.820;2022-11-02T09:05:36;100625.12;;;15.51;68.88
42067;BME280;27734;47.028;28.820;2022-11-02T09:08:11;100627.82;;;15.54;67.16
42067;BME280;27734;47.028;28.820;2022-11-02T09:10:50;100618.90;;;15.48;65.85
42067;BME280;27734;47.028;28.820;2022-11-02T09:13:24;100617.19;;;15.51;68.00
42067;BME280;27734;47.028;28.820;2022-11-02T09:15:58;100605.89;;;15.60;67.11
42067;BME280;27734;47.028;28.820;2022-11-02T09:18:34;100602.41;;;15.64;67.26
42067;BME280;27734;47.028;28.820;2022-11-02T09:21:06;100596.36;;;15.71;67.24
42067;BME280;27734;47.028;28.820;2022-11-02T09:23:39;100619.34;;;15.74;66.26
42067;BME280;27734;47.028;28.820;2022-11-02T09:26:13;100611.49;;;15.77;65.76
42067;BME280;27734;47.028;28.820;2022-11-02T09:28:44;100610.61;;;15.78;66.30
42067;BME280;27734;47.028;28.820;2022-11-02T09:31:16;100613.28;;;15.79;65.32
42067;BME280;27734;47.028;28.820;2022-11-02T09:33:47;100608.03;;;15.83;65.63
42067;BME280;27734;47.028;28.820;2022-11-02T09:36:20;100609.92;;;15.90;66.03
42067;BME280;27734;47.028;28.820;2022-11-02T09:39:02;100610.85;;;15.93;65.69
42067;BME280;27734;47.028;28.820;2022-11-02T09:41:48;100599.48;;;15.99;65.32
42067;BME280;27734;47.028;28.820;2022-11-02T09:44:27;100597.78;;;16.04;65.39
42067;BME280;27734;47.028;28.820;2022-11-02T09:47:02;100588.12;;;16.08;65.17
42067;BME280;27734;47.028;28.820;2022-11-02T09:49:34;100591.75;;;16.13;65.27
42067;BME280;27734;47.028;28.820;2022-11-02T09:52:17;100595.34;;;16.18;64.94
42067;BME280;27734;47.028;28.820;2022-11-02T09:54:55;100583.96;;;16.24;64.83
42067;BME280;27734;47.028;28.820;2022-11-02T09:57:33;100585.80;;;16.31;64.03
42067;BME280;27734;47.028;28.820;2022-11-02T10:00:11;100596.48;;;16.37;64.21
42067;BME280;27734;47.028;28.820;2022-11-02T10:03:15;100569.24;;;16.46;64.50
42067;BME280;27734;47.028;28.820;2022-11-02T10:06:16;100563.92;;;16.44;64.40
42067;BME280;27734;47.028;28.820;2022-11-02T10:08:58;100579.08;;;16.58;63.24
42067;BME280;27734;47.028;28.820;2022-11-02T10:11:43;100573.86;;;16.64;63.86
42067;BME280;27734;47.028;28.820;2022-11-02T10:14:28;100568.59;;;16.67;63.59
42067;BME280;27734;47.028;28.820;2022-11-02T10:17:12;100568.70;;;16.76;64.31
42067;BME280;27734;47.028;28.820;2022-11-02T10:19:51;100559.98;;;16.85;63.35
42067;BME280;27734;47.028;28.820;2022-11-02T10:22:31;100555.64;;;16.90;63.18
42067;BME280;27734;47.028;28.820;2022-11-02T10:25:09;100559.16;;;16.89;62.82
42067;BME280;27734;47.028;28.820;2022-11-02T10:27:44;100570.63;;;16.86;61.47
42067;BME280;27734;47.028;28.820;2022-11-02T10:30:20;100560.06;;;16.89;62.19
42067;BME280;27734;47.028;28.820;2022-11-02T10:32:58;100550.27;;;16.85;60.90
42067;BME280;27734;47.028;28.820;2022-11-02T10:35:38;100544.16;;;16.89;60.96
42067;BME280;27734;47.028;28.820;2022-11-02T10:38:26;100540.64;;;16.92;61.58
42067;BME280;27734;47.028;28.820;2022-11-02T10:41:16;100544.23;;;16.96;61.40
42067;BME280;27734;47.028;28.820;2022-11-02T10:44:20;100531.05;;;17.03;61.98
42067;BME280;27734;47.028;28.820;2022-11-02T10:47:05;100540.80;;;17.07;60.79
42067;BME280;27734;47.028;28.820;2022-11-02T10:50:28;100547.87;;;17.07;60.59
42067;BME280;27734;47.028;28.820;2022-11-02T10:53:11;100539.08;;;17.11;61.33
42067;BME280;27734;47.028;28.820;2022-11-02T10:56:00;100530.30;;;17.18;60.81
42067;BME280;27734;47.028;28.820;2022-11-02T10:58:42;100519.67;;;17.17;60.86
42067;BME280;27734;47.028;28.820;2022-11-02T11:01:14;100529.40;;;17.16;60.31
42067;BME280;27734;47.028;28.820;2022-11-02T11:04:01;100526.72;;;17.13;60.21
42067;BME280;27734;47.028;28.820;2022-11-02T11:09:50;100519.54;;;17.03;60.22
42067;BME280;27734;47.028;28.820;2022-11-02T11:12:43;100527.49;;;17.03;59.92
42067;BME280;27734;47.028;28.820;2022-11-02T11:15:37;100529.28;;;17.04;59.45
42067;BME280;27734;47.028;28.820;2022-11-02T11:18:19;100538.13;;;17.06;60.22
42067;BME280;27734;47.028;28.820;2022-11-02T11:24:27;100537.27;;;17.07;60.17
42067;BME280;27734;47.028;28.820;2022-11-02T11:27:17;100538.11;;;17.04;59.68
42067;BME280;27734;47.028;28.820;2022-11-02T11:29:57;100541.70;;;17.08;59.34
42067;BME280;27734;47.028;28.820;2022-11-02T11:32:34;100528.51;;;17.14;58.46
42067;BME280;27734;47.028;28.820;2022-11-02T11:35:14;100528.56;;;17.20;59.30
42067;BME280;27734;47.028;28.820;2022-11-02T11:41:11;100536.38;;;17.05;58.55
42067;BME280;27734;47.028;28.820;2022-11-02T11:43:48;100534.48;;;16.95;58.89
42067;BME280;27734;47.028;28.820;2022-11-02T11:46:55;100520.23;;;16.85;59.67
42067;BME280;27734;47.028;28.820;2022-11-02T11:49:48;100556.45;;;16.84;58.86
42067;BME280;27734;47.028;28.820;2022-11-02T11:52:33;100538.68;;;16.76;59.02
42067;BME280;27734;47.028;28.820;2022-11-02T11:55:24;100543.02;;;16.67;59.26
42067;BME280;27734;47.028;28.820;2022-11-02T11:58:10;100551.78;;;16.63;59.97
42067;BME280;27734;47.028;28.820;2022-11-02T12:00:43;100548.13;;;16.52;59.25
42067;BME280;27734;47.028;28.820;2022-11-02T12:03:32;100550.66;;;16.43;59.89
42067;BME280;27734;47.028;28.820;2022-11-02T12:06:28;100541.69;;;16.33;59.81
42067;BME280;27734;47.028;28.820;2022-11-02T12:09:10;100538.95;;;16.24;60.65
42067;BME280;27734;47.028;28.820;2022-11-02T12:12:01;100545.06;;;16.20;60.35
42067;BME280;27734;47.028;28.820;2022-11-02T12:14:46;100541.63;;;16.25;60.29
42067;BME280;27734;47.028;28.820;2022-11-02T12:17:57;100545.19;;;16.29;60.53
42067;BME280;27734;47.028;28.820;2022-11-02T12:27:09;100545.52;;;16.55;60.48
42067;BME280;27734;47.028;28.820;2022-11-02T12:33:07;100533.82;;;16.39;60.13
42067;BME280;27734;47.028;28.820;2022-11-02T12:35:58;100533.72;;;16.28;60.56
42067;BME280;27734;47.028;28.820;2022-11-02T12:38:50;100528.41;;;16.27;60.41
42067;BME280;27734;47.028;28.820;2022-11-02T12:44:30;100522.09;;;16.18;60.88
42067;BME280;27734;47.028;28.820;2022-11-02T12:47:26;100526.52;;;16.18;60.55
42067;BME280;27734;47.028;28.820;2022-11-02T12:50:12;100540.59;;;16.15;60.53
42067;BME280;27734;47.028;28.820;2022-11-02T12:52:57;100540.52;;;16.11;61.34
42067;BME280;27734;47.028;28.820;2022-11-02T12:58:40;100535.19;;;16.08;61.46
42067;BME280;27734;47.028;28.820;2022-11-02T13:01:27;100540.44;;;16.05;61.27
42067;BME280;27734;47.028;28.820;2022-11-02T13:04:57;100537.72;;;16.00;60.96
42067;BME280;27734;47.028;28.820;2022-11-02T13:10:50;100536.01;;;16.02;60.93
42067;BME280;27734;47.028;28.820;2022-11-02T13:13:43;100537.72;;;16.00;61.10
42067;BME280;27734;47.028;28.820;2022-11-02T13:16:47;100523.50;;;15.92;61.60
42067;BME280;27734;47.028;28.820;2022-11-02T13:22:51;100538.36;;;15.82;62.29
42067;BME280;27734;47.028;28.820;2022-11-02T13:25:53;100523.12;;;15.69;62.48
42067;BME280;27734;47.028;28.820;2022-11-02T13:28:39;100535.47;;;15.68;61.69
42067;BME280;27734;47.028;28.820;2022-11-02T13:31:15;100528.30;;;15.61;62.31
42067;BME280;27734;47.028;28.820;2022-11-02T13:33:54;100538.78;;;15.55;61.83
42067;BME280;27734;47.028;28.820;2022-11-02T13:36:32;100549.26;;;15.49;62.62
42067;BME280;27734;47.028;28.820;2022-11-02T13:39:24;100555.35;;;15.43;63.18
42067;BME280;27734;47.028;28.820;2022-11-02T13:42:19;100545.53;;;15.36;62.22
42067;BME280;27734;47.028;28.820;2022-11-02T13:45:19;100545.48;;;15.33;62.22
42067;BME280;27734;47.028;28.820;2022-11-02T13:48:16;100548.92;;;15.28;63.44
42067;BME280;27734;47.028;28.820;2022-11-02T13:50:58;100538.30;;;15.24;63.36
42067;BME280;27734;47.028;28.820;2022-11-02T13:53:38;100549.67;;;15.20;62.85
42067;BME280;27734;47.028;28.820;2022-11-02T13:56:19;100557.55;;;15.17;63.37
42067;BME280;27734;47.028;28.820;2022-11-02T13:58:57;100548.66;;;15.12;63.63
42067;BME280;27734;47.028;28.820;2022-11-02T14:01:34;100556.52;;;15.08;63.68
42067;BME280;27734;47.028;28.820;2022-11-02T14:04:13;100554.67;;;15.04;63.77
42067;BME280;27734;47.028;28.820;2022-11-02T14:07:06;100557.26;;;15.01;63.96
42067;BME280;27734;47.028;28.820;2022-11-02T14:09:42;100564.22;;;14.96;63.62
42067;BME280;27734;47.028;28.820;2022-11-02T14:12:29;100565.02;;;14.92;63.52